Time;durP1;ratioP1;P1;durP2;ratioP2;P2;SDS_P1;SDS_P2;PMS_P1;PMS_P2;Temp;Humidity;BMP_temperature;BMP_pressure;BME280_temperature;BME280_humidity;BME280_pressure;Samples;Min_cycle;Max_cycle;Signal;HPM_P1;HPM_P2
2022/05/05 00:07:34;;;;;;;3.58;1.38;;;10.30;99.90;;;;;;20666705;28;20125;-81
2022/05/05 00:17:36;;;;;;;2.63;1.30;;;10.20;99.90;;;;;;20661610;28;20518;-81
2022/05/05 00:27:37;;;;;;;2.78;1.20;;;9.90;99.90;;;;;;20646084;28;20042;-81
2022/05/05 00:37:39;;;;;;;4.35;1.15;;;9.90;99.90;;;;;;20647345;28;20132;-81
2022/05/05 00:47:40;;;;;;;4.50;1.83;;;9.70;99.90;;;;;;20644397;28;20034;-79
2022/05/05 00:57:42;;;;;;;2.47;1.00;;;9.70;99.90;;;;;;20656731;28;20049;-79
2022/05/05 01:07:43;;;;;;;4.30;1.63;;;9.70;99.90;;;;;;20643671;28;20030;-81
2022/05/05 01:17:44;;;;;;;2.83;1.30;;;9.60;99.90;;;;;;20646336;28;20038;-81
2022/05/05 01:38:08;;;;;;;5.38;1.85;;;9.30;99.90;;;;;;20643133;28;20453;-80
2022/05/05 01:48:09;;;;;;;3.20;1.30;;;9.30;99.90;;;;;;20626966;28;20385;-80
2022/05/05 01:58:10;;;;;;;4.35;1.73;;;9.20;99.90;;;;;;20637953;28;20053;-80
2022/05/05 02:08:12;;;;;;;3.03;1.35;;;9.20;99.90;;;;;;20636190;28;20041;-80
2022/05/05 02:18:14;;;;;;;6.82;1.83;;;9.20;99.90;;;;;;20655152;28;20521;-80
2022/05/05 02:28:15;;;;;;;5.38;2.05;;;9.20;99.90;;;;;;20609169;28;20058;-80
2022/05/05 02:48:37;;;;;;;11.43;1.98;;;9.20;99.90;;;;;;20649717;28;20102;-80
2022/05/05 02:58:38;;;;;;;7.00;1.67;;;9.10;99.90;;;;;;20635636;28;20053;-81
2022/05/05 03:08:39;;;;;;;5.32;1.88;;;8.90;99.90;;;;;;20652276;28;20117;-80
2022/05/05 03:18:40;;;;;;;7.45;2.38;;;8.90;99.90;;;;;;20654098;28;20094;-80
2022/05/05 03:28:45;;;;;;;2.78;1.35;;;8.80;99.90;;;;;;20671315;28;20026;-80
2022/05/05 03:38:46;;;;;;;6.47;1.77;;;8.80;99.90;;;;;;20700585;28;20045;-79
2022/05/05 03:48:47;;;;;;;4.78;1.75;;;8.80;99.90;;;;;;20660724;28;20082;-80
2022/05/05 03:58:48;;;;;;;9.05;3.42;;;8.70;99.90;;;;;;20641451;28;20118;-80
2022/05/05 04:08:50;;;;;;;6.00;2.03;;;8.80;99.90;;;;;;20670075;28;20122;-80
2022/05/05 04:18:52;;;;;;;4.90;1.65;;;9.00;99.90;;;;;;20667867;28;20038;-80
2022/05/05 04:28:56;;;;;;;6.25;2.20;;;9.10;99.90;;;;;;20647828;28;20134;-81
2022/05/05 04:38:58;;;;;;;4.32;1.90;;;9.20;99.90;;;;;;20646423;28;20137;-81
2022/05/05 04:48:59;;;;;;;5.47;2.33;;;9.30;99.90;;;;;;20662229;28;20466;-80
2022/05/05 04:59:00;;;;;;;10.93;3.00;;;9.40;99.90;;;;;;20659261;28;20129;-80
2022/05/05 05:09:02;;;;;;;6.07;2.20;;;9.40;99.90;;;;;;20641638;28;20049;-80
2022/05/05 05:19:03;;;;;;;5.03;2.28;;;9.60;99.90;;;;;;20623808;28;20544;-80
2022/05/05 05:29:05;;;;;;;7.30;2.55;;;9.70;99.90;;;;;;20639390;28;20044;-80
2022/05/05 05:39:08;;;;;;;6.40;2.13;;;9.80;99.90;;;;;;20638489;28;20042;-80
2022/05/05 05:49:09;;;;;;;3.85;1.75;;;10.00;99.90;;;;;;20620377;28;20287;-79
2022/05/05 05:59:11;;;;;;;10.57;2.95;;;10.10;99.90;;;;;;20635060;28;20088;-80
2022/05/05 06:09:13;;;;;;;5.25;2.58;;;10.30;99.90;;;;;;20638218;28;20411;-80
2022/05/05 06:19:14;;;;;;;8.73;2.67;;;10.50;99.90;;;;;;20630876;28;20457;-80
2022/05/05 06:29:15;;;;;;;17.02;4.47;;;10.70;99.90;;;;;;20644593;28;20052;-81
2022/05/05 06:39:18;;;;;;;6.85;2.45;;;10.90;99.90;;;;;;20644864;28;20134;-80
2022/05/05 18:43:27;;;;;;;6.15;2.55;;;16.90;99.90;;;;;;24465172;23;21494;31
2022/05/05 18:53:31;;;;;;;5.38;2.85;;;16.70;99.90;;;;;;19960418;29;20050;-82
2022/05/05 19:03:32;;;;;;;4.38;2.05;;;16.30;99.90;;;;;;20018840;29;20510;-84
2022/05/05 19:13:34;;;;;;;7.05;2.83;;;16.10;99.90;;;;;;20003916;29;20046;-86
2022/05/05 19:23:35;;;;;;;7.70;2.88;;;15.80;99.90;;;;;;19994271;29;20129;-84
2022/05/05 19:33:37;;;;;;;8.40;2.92;;;15.40;99.90;;;;;;19999933;29;20049;-84
2022/05/05 19:43:39;;;;;;;7.60;2.90;;;15.10;99.90;;;;;;19995782;29;20061;-85
2022/05/05 19:53:40;;;;;;;8.02;3.38;;;15.00;99.90;;;;;;19994008;29;20069;-85
2022/05/05 20:03:45;;;;;;;7.35;3.40;;;14.60;99.90;;;;;;19992571;29;20052;-85
2022/05/05 20:13:46;;;;;;;10.68;3.85;;;14.40;99.90;;;;;;19996188;29;20054;-84
2022/05/05 20:23:49;;;;;;;6.40;3.17;;;14.00;99.90;;;;;;20002965;29;20053;-84
2022/05/05 20:33:50;;;;;;;10.10;3.88;;;13.80;99.90;;;;;;20019766;29;20030;-85
2022/05/05 20:43:51;;;;;;;7.07;3.03;;;13.60;99.90;;;;;;20015792;29;20492;-84
2022/05/05 20:53:52;;;;;;;5.45;2.45;;;13.30;99.90;;;;;;20014129;29;20058;-85
2022/05/05 21:03:53;;;;;;;10.68;3.85;;;13.10;99.90;;;;;;20011998;29;20049;-84
2022/05/05 21:13:54;;;;;;;7.13;2.88;;;13.10;99.90;;;;;;19991990;29;20049;-84
2022/05/05 21:34:14;;;;;;;9.02;3.42;;;12.70;99.90;;;;;;20002913;29;20072;-84
2022/05/05 21:44:15;;;;;;;5.13;2.60;;;12.60;99.90;;;;;;19982711;29;21004;-84
2022/05/05 21:54:17;;;;;;;6.78;2.92;;;12.40;99.90;;;;;;20853031;23;20535;-81
2022/05/05 22:04:18;;;;;;;8.40;3.33;;;12.20;99.90;;;;;;20213644;29;20044;-82
2022/05/05 22:14:19;;;;;;;6.15;2.30;;;12.10;99.90;;;;;;20204330;28;20041;-81
2022/05/05 22:24:20;;;;;;;9.43;3.00;;;12.00;99.90;;;;;;20200072;29;20516;-82
2022/05/05 22:34:22;;;;;;;6.63;2.65;;;12.00;99.90;;;;;;20187371;29;20517;-82
2022/05/05 22:44:24;;;;;;;6.32;2.38;;;11.80;99.90;;;;;;20203504;29;20068;-81
2022/05/05 22:54:25;;;;;;;7.70;3.15;;;11.50;99.90;;;;;;20179844;29;20063;-82
2022/05/05 23:04:27;;;;;;;6.75;2.70;;;11.40;99.90;;;;;;20165058;29;20044;-82
2022/05/05 23:14:28;;;;;;;11.65;3.97;;;11.30;99.90;;;;;;20164376;29;20085;-81
2022/05/05 23:24:29;;;;;;;13.27;4.20;;;11.40;99.90;;;;;;20175204;29;20497;-82
2022/05/05 23:44:54;;;;;;;13.25;4.03;;;11.40;99.90;;;;;;20162750;29;20507;-82
2022/05/05 23:54:56;;;;;;;13.30;5.00;;;11.50;99.90;;;;;;20161001;29;20048;-82
